Aeroporto :
LOGIN :

Iscrizione | Disclaimer

   EN    FR    IT 

 










Sommario :    VFR   VFR Marginale   IFR   IFR Intensivo   IFR Molto Intensivo
Visibilità : 
Base nubi : 
>= 8 km
>= 3000ft
5 / 8 km
1000 / 3000 ft
1500m / 5 km
500 / 1000 ft
800 / 1500m
200 / 500 ft
< 800m
< 200 ft
Simboli :   Temporali  Nebbia  Neve Forte  Precipitazioni Forti  Vento > 20 kt
SIGMETs :   Varie  Temporali  Ghiacco  Turbolenza  Onda orograficha  Ceneri Vulcaniche






- Altitudine del aeroporto : 170 ft
- Codice IATA : KRP


EKKA - Karup

ULTIMO METAR :
  • 210750Z AUTO 14005KT 110V170 9999 BKN018/// 05/03 Q1015 TEMPO 7000

METARs OBSOLETI :
  • 210720Z AUTO 14005KT 9999 BKN019/// 04/03 Q1015 TEMPO 3000 -RADZ BR BKN005
  • 210653Z 14006KT 110V170 9999 BKN018 05/03 Q1015 TEMPO 3000 -RADZ BR BKN005
  • 210621Z 15006KT 9999 SCT006 BKN180 05/03 Q1014 TEMPO 3000 -RADZ BR BKN005
  • 210551Z 14005KT 110V170 9999 BKN005 BKN008 05/04 Q1014 TEMPO 3000 -RADZ BR BKN005
  • 210529Z AUTO 13005KT 100V160 9999 BKN005/// OVC028/// 05/04 Q1014 TEMPO 3000 -RADZ BR BKN005
  • 210520Z AUTO 14008KT 110V170 9999 SCT005/// BKN028/// OVC034/// 05/04 Q1014

TAF AMD TAF EKKA
Valido dal 21 a 06 ore il 22 a 06 ore UTC


210634Z 2106/2206 12008KT 9999 SCT008 BKN015
TEMPO 2106/2109 3000 -RADZ BR BKN005
BECMG 2113/2115 08006KT 7000 -RA BKN012
TEMPO 2115/2206 1800 BKN002



MetMap, La meteo Aeronautica in un colpo d'occhio ! - Copyright ORBIFLY Dicembre 2007 - Disclaimer

ORBIFLY MET'MAP TEAM :

Programmazione e sviluppo : Alexandra Zaïnal
Concezione e sviluppo : Baudouin d'Aumeries
Co-Programmazione e sviluppo : Marc-Olivier Méhu
Supporto tecnico e logistico : Manuel Goepfert
Aiuto per la traduzione : Arnaldo La Scala

Contatto : metmap@orbifly.com




FONTI E CREDITI :

   NOAA